KAPA/APA METAR and TAF weather

Enter ICAO airport designator
Station Type Date Time Source
KAPA METAR 2019/05/23 18:53 UTC NOAA

KAPA 231853Z 13007KT 10SM OVC030 07/01 A3004 RMK AO2 SLP163 T00720011


Station Type Date Time Source
KAPA Decoded METAR 2019/05/23 18:53 UTC NOAA

DENVER CENTENNIAL AIRPORT, CO, United States (KAPA) 39-34N 104-51W 1775M
May 23, 2019 - 02:53 PM EDT / 2019.05.23 1853 UTC
Wind: from the SE (130 degrees) at 8 MPH (7 KT):0
Visibility: 10 mile(s):0
Sky conditions: overcast
Temperature: 45.0 F (7.2 C)
Dew Point: 34.0 F (1.1 C)
Relative Humidity: 65%
Pressure (altimeter): 30.04 in. Hg (1017 hPa)
ob: KAPA 231853Z 13007KT 10SM OVC030 07/01 A3004 RMK AO2 SLP163 T00720011
cycle: 19

Station Type Date Time Source
KAPA TAF 2019/05/23 19:57 UTC NOAA

TAF
AMD KAPA 231857Z 2319/2418 15012G18KT P6SM BKN020 OVC035
TEMPO 2322/2401 5SM -SHRA BR BKN015
FM240300 19010KT P6SM FEW070 SCT200
FM241700 22012G22KT P6SM FEW200

Example: see airport list